createdAt,value
2018-07-22T00:00:35.980Z,2.40
2018-07-22T00:03:04.447Z,1.97
2018-07-22T00:05:32.981Z,2.50
2018-07-22T00:08:01.826Z,2.03
2018-07-22T00:10:31.276Z,2.23
2018-07-22T00:13:00.736Z,2.57
2018-07-22T00:15:29.610Z,2.73
2018-07-22T00:17:58.441Z,2.70
2018-07-22T00:20:27.161Z,2.30
2018-07-22T00:22:55.977Z,2.40
2018-07-22T00:25:24.452Z,2.80
2018-07-22T00:27:53.106Z,2.57
2018-07-22T00:30:22.341Z,2.50
2018-07-22T00:32:51.214Z,2.83
2018-07-22T00:35:20.281Z,2.57
2018-07-22T00:37:49.321Z,2.53
2018-07-22T00:40:18.001Z,2.60
2018-07-22T00:42:46.848Z,2.70
2018-07-22T00:45:15.684Z,3.07
2018-07-22T00:47:44.205Z,3.00
2018-07-22T00:50:13.578Z,2.70
2018-07-22T00:52:42.963Z,2.50
2018-07-22T00:55:11.437Z,3.13
2018-07-22T00:57:39.930Z,3.07
2018-07-22T01:00:10.090Z,3.00
2018-07-22T01:02:38.596Z,2.90
2018-07-22T01:05:07.316Z,3.00
2018-07-22T01:07:36.614Z,3.20
2018-07-22T01:10:05.417Z,3.17
2018-07-22T01:12:34.157Z,3.00
2018-07-22T01:15:03.063Z,3.30
2018-07-22T01:17:32.113Z,3.10
2018-07-22T01:20:00.830Z,3.40
2018-07-22T01:22:29.654Z,3.20
2018-07-22T01:24:58.455Z,3.37
2018-07-22T01:27:27.189Z,3.07
2018-07-22T01:29:56.867Z,2.70
2018-07-22T01:32:25.320Z,3.03
2018-07-22T01:34:54.229Z,2.67
2018-07-22T01:37:23.557Z,3.33
2018-07-22T01:39:51.993Z,3.43
2018-07-22T01:42:20.552Z,2.87
2018-07-22T01:44:49.654Z,2.97
2018-07-22T01:47:18.167Z,3.03
2018-07-22T01:49:47.267Z,2.80
2018-07-22T01:52:16.220Z,3.30
2018-07-22T01:54:45.208Z,3.30
2018-07-22T01:57:13.669Z,3.20
2018-07-22T01:59:43.309Z,3.33
2018-07-22T02:02:12.138Z,3.23
2018-07-22T02:04:40.589Z,3.13
2018-07-22T02:07:09.459Z,3.17
2018-07-22T02:09:38.459Z,3.20
2018-07-22T02:12:06.932Z,3.67
2018-07-22T02:14:36.119Z,3.67
2018-07-22T02:17:04.637Z,3.37
2018-07-22T02:19:33.752Z,3.70
2018-07-22T02:22:02.390Z,3.43
2018-07-22T02:24:30.853Z,3.40
2018-07-22T02:26:59.649Z,3.77
2018-07-22T02:29:28.849Z,3.90
2018-07-22T02:31:57.325Z,3.77
2018-07-22T02:34:25.820Z,3.70
2018-07-22T02:36:54.914Z,3.37
2018-07-22T02:39:23.833Z,3.50
2018-07-22T02:41:52.321Z,3.97
2018-07-22T02:44:21.435Z,3.37
2018-07-22T02:46:49.907Z,3.37
2018-07-22T02:49:18.401Z,3.37
2018-07-22T02:51:47.234Z,2.90
2018-07-22T02:54:15.785Z,3.30
2018-07-22T02:56:44.249Z,3.40
2018-07-22T02:59:13.005Z,3.23
2018-07-22T03:01:41.792Z,3.23
2018-07-22T03:04:10.508Z,3.77
2018-07-22T03:06:39.452Z,3.60
2018-07-22T03:09:09.180Z,3.43
2018-07-22T03:11:38.066Z,3.57
2018-07-22T03:14:07.001Z,3.43
2018-07-22T03:16:35.531Z,3.30
2018-07-22T03:19:04.590Z,3.17
2018-07-22T03:21:33.356Z,3.23
2018-07-22T03:24:01.962Z,3.23
2018-07-22T03:26:31.137Z,3.20
2018-07-22T03:28:59.969Z,2.90
2018-07-22T03:31:28.417Z,3.13
2018-07-22T03:33:56.875Z,3.50
2018-07-22T03:36:25.725Z,2.87
2018-07-22T03:38:54.490Z,3.30
2018-07-22T03:41:23.661Z,2.70
2018-07-22T03:43:53.009Z,3.30
2018-07-22T03:46:21.857Z,3.10
2018-07-22T03:48:50.314Z,2.60
2018-07-22T03:51:19.142Z,2.90
2018-07-22T03:53:47.869Z,2.80
2018-07-22T03:56:16.627Z,2.80
2018-07-22T03:58:45.726Z,3.43
2018-07-22T04:01:14.297Z,3.03
2018-07-22T04:03:42.959Z,2.70
2018-07-22T04:06:11.792Z,3.07
2018-07-22T04:08:40.617Z,2.90
2018-07-22T04:11:09.180Z,2.53
2018-07-22T04:13:37.935Z,2.70
2018-07-22T04:16:06.710Z,3.03
2018-07-22T04:18:39.817Z,2.40
2018-07-22T04:21:08.522Z,2.93
2018-07-22T04:23:37.321Z,2.57
2018-07-22T04:26:05.789Z,3.40
2018-07-22T04:28:34.576Z,3.10
2018-07-22T04:31:03.457Z,3.27
2018-07-22T04:33:31.921Z,2.63
2018-07-22T04:36:00.579Z,3.03
2018-07-22T04:38:29.025Z,2.80
2018-07-22T04:40:57.540Z,2.90
2018-07-22T04:43:26.941Z,2.77
2018-07-22T04:45:55.396Z,2.57
2018-07-22T04:48:24.750Z,2.37
2018-07-22T04:50:54.370Z,2.63
2018-07-22T04:53:23.384Z,2.77
2018-07-22T04:55:52.205Z,2.90
2018-07-22T04:58:21.038Z,2.80
2018-07-22T05:00:50.353Z,2.57
2018-07-22T05:03:19.094Z,3.00
2018-07-22T05:05:48.042Z,2.83
2018-07-22T05:08:16.748Z,2.60
2018-07-22T05:10:45.482Z,2.90
2018-07-22T05:13:14.393Z,2.73
2018-07-22T05:15:42.827Z,2.47
2018-07-22T05:18:11.507Z,2.87
2018-07-22T05:20:40.737Z,2.50
2018-07-22T05:23:09.331Z,2.70
2018-07-22T05:25:38.137Z,2.40
2018-07-22T05:28:06.842Z,2.23
2018-07-22T05:30:35.346Z,2.40
2018-07-22T05:33:03.794Z,2.67
2018-07-22T05:35:32.765Z,2.60
2018-07-22T05:38:01.229Z,2.17
2018-07-22T05:40:29.777Z,2.67
2018-07-22T05:42:58.815Z,2.50
2018-07-22T05:45:27.814Z,2.63
2018-07-22T05:47:56.361Z,2.50
2018-07-22T05:50:25.165Z,2.40
2018-07-22T05:52:54.256Z,2.47
2018-07-22T05:55:22.877Z,2.57
2018-07-22T05:57:52.129Z,2.23
2018-07-22T06:00:20.665Z,2.30
2018-07-22T06:02:49.413Z,2.40
2018-07-22T06:05:18.085Z,2.50
2018-07-22T06:07:46.549Z,2.50
2018-07-22T06:10:15.424Z,2.30
2018-07-22T06:12:43.967Z,2.30
2018-07-22T06:15:12.409Z,2.50
2018-07-22T06:17:41.549Z,2.30
2018-07-22T06:20:10.354Z,2.40
2018-07-22T06:22:39.048Z,2.93
2018-07-22T06:25:08.558Z,2.67
2018-07-22T06:27:37.705Z,2.80
2018-07-22T06:30:06.733Z,2.50
2018-07-22T06:32:35.527Z,2.10
2018-07-22T06:35:05.188Z,2.40
2018-07-22T06:37:34.000Z,2.30
2018-07-22T06:40:02.741Z,2.30
2018-07-22T06:42:31.631Z,2.13
2018-07-22T06:45:00.107Z,2.00
2018-07-22T06:47:29.193Z,2.30
2018-07-22T06:49:58.161Z,2.17
2018-07-22T06:52:27.037Z,2.20
2018-07-22T06:54:55.536Z,2.10
2018-07-22T06:57:24.225Z,2.30
2018-07-22T06:59:53.364Z,2.20
2018-07-22T07:02:23.097Z,2.50
2018-07-22T07:04:51.914Z,2.20
2018-07-22T07:07:20.700Z,2.37
2018-07-22T07:09:49.433Z,2.13
2018-07-22T07:12:17.885Z,2.27
2018-07-22T07:14:46.768Z,2.43
2018-07-22T07:17:15.250Z,2.40
2018-07-22T07:19:43.718Z,2.30
2018-07-22T07:22:12.513Z,2.23
2018-07-22T07:24:41.171Z,2.23
2018-07-22T07:27:10.830Z,2.23
2018-07-22T07:29:39.667Z,2.10
2018-07-22T07:32:08.225Z,2.17
2018-07-22T07:34:37.117Z,2.30
2018-07-22T07:37:06.772Z,2.50
2018-07-22T07:39:35.518Z,2.40
2018-07-22T07:42:04.330Z,2.30
2018-07-22T07:44:33.393Z,2.10
2018-07-22T07:47:01.909Z,2.08
2018-07-22T07:49:30.666Z,2.60
2018-07-22T07:51:59.537Z,2.33
2018-07-22T07:54:28.055Z,1.75
2018-07-22T07:56:56.724Z,1.90
2018-07-22T07:59:25.269Z,1.72
2018-07-22T08:01:53.980Z,2.10
2018-07-22T08:04:22.854Z,1.95
2018-07-22T08:06:51.729Z,2.02
2018-07-22T08:09:20.349Z,1.62
2018-07-22T08:11:48.874Z,2.08
2018-07-22T08:14:17.276Z,1.87
2018-07-22T08:16:45.805Z,1.50
2018-07-22T08:19:14.639Z,1.87
2018-07-22T08:21:43.228Z,1.80
2018-07-22T08:24:11.777Z,1.67
2018-07-22T08:26:40.429Z,2.00
2018-07-22T08:29:31.381Z,1.65
2018-07-22T08:32:00.550Z,1.60
2018-07-22T08:34:29.136Z,1.47
2018-07-22T08:36:57.677Z,1.80
2018-07-22T08:39:27.801Z,1.52
2018-07-22T08:41:57.090Z,1.52
2018-07-22T08:44:25.650Z,1.90
2018-07-22T08:46:55.010Z,1.67
2018-07-22T08:49:24.582Z,1.85
2018-07-22T08:51:53.257Z,1.87
2018-07-22T08:54:21.733Z,1.70
2018-07-22T08:56:50.209Z,1.57
2018-07-22T08:59:18.670Z,1.67
2018-07-22T09:01:48.357Z,1.47
2018-07-22T09:04:17.169Z,1.70
2018-07-22T09:06:45.916Z,2.08
2018-07-22T09:09:14.722Z,1.62
2018-07-22T09:11:43.343Z,1.87
2018-07-22T09:14:11.881Z,1.92
2018-07-22T09:16:40.775Z,1.80
2018-07-22T09:19:09.602Z,1.75
2018-07-22T09:21:38.817Z,2.02
2018-07-22T09:24:07.839Z,1.87
2018-07-22T09:26:36.256Z,2.30
2018-07-22T09:29:07.112Z,1.55
2018-07-22T09:31:35.618Z,1.47
2018-07-22T09:34:04.182Z,1.67
2018-07-22T09:36:32.868Z,1.70
2018-07-22T09:39:01.620Z,1.67
2018-07-22T09:41:30.221Z,1.60
2018-07-22T09:43:58.945Z,1.67
2018-07-22T09:46:27.591Z,1.80
2018-07-22T09:48:56.026Z,1.52
2018-07-22T09:51:25.480Z,2.02
2018-07-22T09:53:55.370Z,1.70
2018-07-22T09:56:24.521Z,1.70
2018-07-22T09:58:52.989Z,1.35
2018-07-22T10:01:21.446Z,1.77
2018-07-22T10:03:50.229Z,1.10
2018-07-22T10:06:18.897Z,1.30
2018-07-22T10:08:47.398Z,1.37
2018-07-22T10:11:16.094Z,1.65
2018-07-22T10:13:44.692Z,1.32
2018-07-22T10:16:13.376Z,1.20
2018-07-22T10:18:42.762Z,1.40
2018-07-22T10:21:11.650Z,1.40
2018-07-22T10:23:40.495Z,1.50
2018-07-22T10:26:09.818Z,1.70
2018-07-22T10:28:38.687Z,1.55
2018-07-22T10:31:07.224Z,1.45
2018-07-22T10:33:35.749Z,1.40
2018-07-22T10:36:04.733Z,1.55
2018-07-22T10:38:33.372Z,1.50
2018-07-22T10:41:03.050Z,1.30
2018-07-22T10:43:32.090Z,1.40
2018-07-22T10:46:01.024Z,1.62
2018-07-22T10:48:30.106Z,1.70
2018-07-22T10:50:58.724Z,1.40
2018-07-22T10:53:27.361Z,1.40
2018-07-22T10:55:56.141Z,1.80
2018-07-22T10:58:24.762Z,1.62
2018-07-22T11:00:54.601Z,1.62
2018-07-22T11:03:23.523Z,1.70
2018-07-22T11:05:52.031Z,1.55
2018-07-22T11:08:20.922Z,1.55
2018-07-22T11:10:50.278Z,1.60
2018-07-22T11:13:19.810Z,1.75
2018-07-22T11:15:48.566Z,1.50
2018-07-22T11:18:17.413Z,1.35
2018-07-22T11:20:45.973Z,1.60
2018-07-22T11:23:14.807Z,1.50
2018-07-22T11:25:43.661Z,1.40
2018-07-22T11:28:12.714Z,1.60
2018-07-22T11:30:42.462Z,1.37
2018-07-22T11:33:11.276Z,1.50
2018-07-22T11:35:39.770Z,1.30
2018-07-22T11:38:08.343Z,1.42
2018-07-22T11:40:36.794Z,1.42
2018-07-22T11:43:05.284Z,1.30
2018-07-22T11:45:34.325Z,1.50
2018-07-22T11:48:03.008Z,2.00
2018-07-22T11:50:31.528Z,1.25
2018-07-22T11:52:59.982Z,1.50
2018-07-22T11:55:28.867Z,1.25
2018-07-22T11:57:57.563Z,1.30
2018-07-22T12:00:26.303Z,1.17
2018-07-22T12:02:55.399Z,1.10
2018-07-22T12:05:24.672Z,1.07
2018-07-22T12:07:53.574Z,1.20
2018-07-22T12:10:22.400Z,1.02
2018-07-22T12:12:50.897Z,1.20
2018-07-22T12:15:19.963Z,1.07
2018-07-22T12:17:48.774Z,1.20
2018-07-22T12:20:17.469Z,1.37
2018-07-22T12:22:46.133Z,1.22
2018-07-22T12:25:14.672Z,1.20
2018-07-22T12:27:43.505Z,1.10
2018-07-22T12:30:12.470Z,1.10
2018-07-22T12:32:40.923Z,1.20
2018-07-22T12:35:10.514Z,1.17
2018-07-22T12:37:40.046Z,1.15
2018-07-22T12:40:08.478Z,1.27
2018-07-22T12:42:36.967Z,1.20
2018-07-22T12:45:06.636Z,1.10
2018-07-22T12:47:35.461Z,1.30
2018-07-22T12:50:04.074Z,1.45
2018-07-22T12:52:32.812Z,1.30
2018-07-22T12:55:01.268Z,1.27
2018-07-22T12:57:29.776Z,1.15
2018-07-22T12:59:59.058Z,1.20
2018-07-22T13:02:27.558Z,1.15
2018-07-22T13:04:56.029Z,1.00
2018-07-22T13:07:24.793Z,1.07
2018-07-22T13:09:53.565Z,0.98
2018-07-22T13:12:22.125Z,1.10
2018-07-22T13:14:50.981Z,0.90
2018-07-22T13:17:20.443Z,0.98
2018-07-22T13:19:48.944Z,1.00
2018-07-22T13:22:18.417Z,1.00
2018-07-22T13:24:47.278Z,0.95
2018-07-22T13:27:16.001Z,1.30
2018-07-22T13:29:45.022Z,1.17
2018-07-22T13:32:13.619Z,1.00
2018-07-22T13:34:42.681Z,0.90
2018-07-22T13:37:11.310Z,1.00
2018-07-22T13:39:39.998Z,1.00
2018-07-22T13:42:09.234Z,0.90
2018-07-22T13:44:38.599Z,1.00
2018-07-22T13:47:07.938Z,1.10
2018-07-22T13:49:36.402Z,1.10
2018-07-22T13:52:05.081Z,1.00
2018-07-22T13:54:33.946Z,1.20
2018-07-22T13:57:02.675Z,0.90
2018-07-22T13:59:31.569Z,0.90
2018-07-22T14:02:00.129Z,1.05
2018-07-22T14:04:28.857Z,0.95
2018-07-22T14:06:57.300Z,1.00
2018-07-22T14:09:25.797Z,1.05
2018-07-22T14:11:54.536Z,0.90
2018-07-22T14:14:23.084Z,1.12
2018-07-22T14:16:51.549Z,1.30
2018-07-22T14:19:20.557Z,1.10
2018-07-22T14:21:49.006Z,1.00
2018-07-22T14:24:17.816Z,1.20
2018-07-22T14:26:46.609Z,0.90
2018-07-22T14:29:15.077Z,1.00
2018-07-22T14:31:44.029Z,1.30
2018-07-22T14:34:12.987Z,0.80
2018-07-22T14:36:41.776Z,1.10
2018-07-22T14:39:12.429Z,0.98
2018-07-22T14:41:41.357Z,0.80
2018-07-22T14:44:09.857Z,1.12
2018-07-22T14:46:38.534Z,1.05
2018-07-22T14:49:07.177Z,1.00
2018-07-22T14:51:35.619Z,1.20
2018-07-22T14:54:04.423Z,1.00
2018-07-22T14:56:33.211Z,1.20
2018-07-22T14:59:01.953Z,0.93
2018-07-22T15:01:30.396Z,1.02
2018-07-22T15:03:59.717Z,1.22
2018-07-22T15:06:28.460Z,1.10
2018-07-22T15:08:56.965Z,1.15
2018-07-22T15:11:25.849Z,1.35
2018-07-22T15:13:55.491Z,1.10
2018-07-22T15:16:24.848Z,1.30
2018-07-22T15:18:53.557Z,1.37
2018-07-22T15:21:21.993Z,1.10
2018-07-22T15:23:50.648Z,1.27
2018-07-22T15:26:19.122Z,1.20
2018-07-22T15:28:48.144Z,1.10
2018-07-22T15:31:16.769Z,1.40
2018-07-22T15:33:45.217Z,1.40
2018-07-22T15:36:13.997Z,1.17
2018-07-22T15:38:42.765Z,0.90
2018-07-22T15:41:11.213Z,1.05
2018-07-22T15:43:39.665Z,1.10
2018-07-22T15:46:08.569Z,1.10
2018-07-22T15:48:37.731Z,1.05
2018-07-22T15:51:07.050Z,1.10
2018-07-22T15:53:35.550Z,1.42
2018-07-22T15:56:04.636Z,1.50
2018-07-22T15:58:33.109Z,1.50
2018-07-22T16:01:01.657Z,1.35
2018-07-22T16:03:30.425Z,1.52
2018-07-22T16:05:59.305Z,1.77
2018-07-22T16:08:27.798Z,1.40
2018-07-22T16:10:56.590Z,1.47
2018-07-22T16:13:25.412Z,1.70
2018-07-22T16:15:54.773Z,1.75
2018-07-22T16:18:23.525Z,1.80
2018-07-22T16:20:52.483Z,1.70
2018-07-22T16:23:21.405Z,1.70
2018-07-22T16:25:49.933Z,1.80
2018-07-22T16:28:18.751Z,1.50
2018-07-22T16:30:47.465Z,2.22
2018-07-22T16:33:15.955Z,2.47
2018-07-22T16:35:45.094Z,2.83
2018-07-22T16:38:13.666Z,2.22
2018-07-22T16:40:42.333Z,1.85
2018-07-22T16:43:10.761Z,2.12
2018-07-22T16:45:39.417Z,1.82
2018-07-22T16:48:08.061Z,2.05
2018-07-22T16:50:36.927Z,1.95
2018-07-22T16:53:05.629Z,1.90
2018-07-22T16:55:34.506Z,2.20
2018-07-22T16:58:03.006Z,1.82
2018-07-22T17:00:31.550Z,2.08
2018-07-22T17:02:59.981Z,2.10
2018-07-22T17:05:28.457Z,2.80
2018-07-22T17:07:57.049Z,3.12
2018-07-22T17:10:26.836Z,4.50
2018-07-22T17:12:55.528Z,5.40
2018-07-22T17:15:24.000Z,3.60
2018-07-22T17:17:53.513Z,1.70
2018-07-22T17:20:22.520Z,1.40
2018-07-22T17:22:51.563Z,1.60
2018-07-22T17:25:20.005Z,1.60
2018-07-22T17:27:49.217Z,1.90
2018-07-22T17:30:17.740Z,1.50
2018-07-22T17:32:46.197Z,1.90
2018-07-22T17:35:15.457Z,1.65
2018-07-22T17:37:43.981Z,1.67
2018-07-22T17:40:12.441Z,1.80
2018-07-22T17:42:41.168Z,1.80
2018-07-22T17:45:10.012Z,1.60
2018-07-22T17:47:39.485Z,2.15
2018-07-22T17:50:08.134Z,1.65
2018-07-22T17:52:36.603Z,1.67
2018-07-22T17:55:05.373Z,1.70
2018-07-22T17:57:34.111Z,1.98
2018-07-22T18:00:02.776Z,1.90
2018-07-22T18:02:31.213Z,1.70
2018-07-22T18:04:59.959Z,1.90
2018-07-22T18:07:28.809Z,1.70
2018-07-22T18:09:57.571Z,1.75
2018-07-22T18:12:26.597Z,1.87
2018-07-22T18:14:55.482Z,1.95
2018-07-22T18:17:24.389Z,2.02
2018-07-22T18:19:52.865Z,1.95
2018-07-22T18:22:21.373Z,2.20
2018-07-22T18:24:50.197Z,1.67
2018-07-22T18:27:19.026Z,1.80
2018-07-22T18:29:47.549Z,1.90
2018-07-22T18:32:16.237Z,2.15
2018-07-22T18:34:45.093Z,1.80
2018-07-22T18:37:14.086Z,1.67
2018-07-22T18:39:42.474Z,1.85
2018-07-22T18:42:11.339Z,1.65
2018-07-22T18:44:39.811Z,1.75
2018-07-22T18:47:08.293Z,2.02
2018-07-22T18:49:37.374Z,1.90
2018-07-22T18:52:06.137Z,2.00
2018-07-22T18:54:34.566Z,1.67
2018-07-22T18:57:03.420Z,1.85
2018-07-22T18:59:31.869Z,2.30
2018-07-22T19:02:00.449Z,2.35
2018-07-22T19:04:29.317Z,2.42
2018-07-22T19:06:58.261Z,2.22
2018-07-22T19:09:26.770Z,2.30
2018-07-22T19:11:56.242Z,1.82
2018-07-22T19:14:25.117Z,1.90
2018-07-22T19:16:53.742Z,2.20
2018-07-22T19:19:22.437Z,2.25
2018-07-22T19:21:51.707Z,1.80
2018-07-22T19:24:20.816Z,2.08
2018-07-22T19:26:49.425Z,1.90
2018-07-22T19:29:18.770Z,1.90
2018-07-22T19:31:47.219Z,2.10
2018-07-22T19:34:16.013Z,2.35
2018-07-22T19:36:44.901Z,2.20
2018-07-22T19:39:14.117Z,2.10
2018-07-22T19:41:42.800Z,2.00
2018-07-22T19:44:11.301Z,1.90
2018-07-22T19:46:39.768Z,1.98
2018-07-22T19:49:08.226Z,2.12
2018-07-22T19:51:37.245Z,1.95
2018-07-22T19:54:06.000Z,2.17
2018-07-22T19:56:34.595Z,2.30
2018-07-22T19:59:03.212Z,2.60
2018-07-22T20:01:35.365Z,2.27
2018-07-22T20:04:04.697Z,2.27
2018-07-22T20:06:33.205Z,2.10
2018-07-22T20:09:01.645Z,2.70
2018-07-22T20:11:30.613Z,3.20
2018-07-22T20:13:59.278Z,3.72
2018-07-22T20:16:27.791Z,2.30
2018-07-22T20:18:56.661Z,2.45
2018-07-22T20:21:25.877Z,3.00
2018-07-22T20:23:54.932Z,2.65
2018-07-22T20:26:23.901Z,2.20
2018-07-22T20:28:52.741Z,2.30
2018-07-22T20:31:21.191Z,2.55
2018-07-22T20:33:49.718Z,2.22
2018-07-22T20:36:18.190Z,2.25
2018-07-22T20:38:47.137Z,2.58
2018-07-22T20:41:16.210Z,2.30
2018-07-22T20:43:45.162Z,2.87
2018-07-22T20:46:13.942Z,2.25
2018-07-22T20:48:42.557Z,2.75
2018-07-22T20:51:11.108Z,2.65
2018-07-22T20:53:39.911Z,2.92
2018-07-22T20:56:08.405Z,2.62
2018-07-22T20:58:36.967Z,2.60
2018-07-22T21:01:05.708Z,2.85
2018-07-22T21:03:34.584Z,2.77
2018-07-22T21:06:03.035Z,2.90
2018-07-22T21:08:32.385Z,2.90
2018-07-22T21:11:00.857Z,2.98
2018-07-22T21:13:29.275Z,2.72
2018-07-22T21:15:58.513Z,2.98
2018-07-22T21:18:27.582Z,3.15
2018-07-22T21:20:57.891Z,2.83
2018-07-22T21:23:26.584Z,2.47
2018-07-22T21:25:56.321Z,3.00
2018-07-22T21:28:24.759Z,2.98
2018-07-22T21:30:53.434Z,2.60
2018-07-22T21:33:21.961Z,2.65
2018-07-22T21:35:50.920Z,4.70
2018-07-22T21:38:19.369Z,3.00
2018-07-22T21:40:47.829Z,2.87
2018-07-22T21:43:16.715Z,2.77
2018-07-22T21:45:45.188Z,2.50
2018-07-22T21:48:13.932Z,2.67
2018-07-22T21:50:43.465Z,2.60
2018-07-22T21:53:12.046Z,2.83
2018-07-22T21:55:40.547Z,2.62
2018-07-22T21:58:09.104Z,2.83
2018-07-22T22:00:43.221Z,2.58
2018-07-22T22:03:11.699Z,2.83
2018-07-22T22:05:40.514Z,3.02
2018-07-22T22:08:09.223Z,3.27
2018-07-22T22:10:38.170Z,3.22
2018-07-22T22:13:06.957Z,2.85
2018-07-22T22:15:35.430Z,3.17
2018-07-22T22:18:05.521Z,3.27
2018-07-22T22:20:34.261Z,3.30
2018-07-22T22:23:02.745Z,2.85
2018-07-22T22:25:31.565Z,3.05
2018-07-22T22:28:00.557Z,2.80
2018-07-22T22:30:29.417Z,3.20
2018-07-22T22:32:57.885Z,2.52
2018-07-22T22:35:26.513Z,2.58
2018-07-22T22:37:55.305Z,2.65
2018-07-22T22:40:24.281Z,2.70
2018-07-22T22:42:52.803Z,2.50
2018-07-22T22:45:21.549Z,2.70
2018-07-22T22:47:50.337Z,2.60
2018-07-22T22:50:18.848Z,2.90
2018-07-22T22:52:47.542Z,2.80
2018-07-22T22:55:16.393Z,2.90
2018-07-22T22:57:56.001Z,3.07
2018-07-22T23:00:24.885Z,3.00
2018-07-22T23:02:53.437Z,3.00
2018-07-22T23:05:21.917Z,2.80
2018-07-22T23:07:51.195Z,2.80
2018-07-22T23:10:19.713Z,2.80
2018-07-22T23:12:48.176Z,2.40
2018-07-22T23:15:16.938Z,3.10
2018-07-22T23:17:45.765Z,3.03
2018-07-22T23:20:14.571Z,2.60
2018-07-22T23:22:43.309Z,2.60
2018-07-22T23:25:12.107Z,2.50
2018-07-22T23:27:41.677Z,2.93
2018-07-22T23:30:10.677Z,2.60
2018-07-22T23:32:39.392Z,2.40
2018-07-22T23:35:08.257Z,2.60
2018-07-22T23:37:36.766Z,2.67
2018-07-22T23:40:05.509Z,2.60
2018-07-22T23:42:34.442Z,2.50
2018-07-22T23:45:03.332Z,2.50
2018-07-22T23:47:32.225Z,2.80
2018-07-22T23:50:01.143Z,2.77
2018-07-22T23:52:30.095Z,2.30
2018-07-22T23:54:58.534Z,2.30
2018-07-22T23:57:27.281Z,2.63
2018-07-22T23:59:56.137Z,2.53
